Time;durP1;ratioP1;P1;durP2;ratioP2;P2;SDS_P1;SDS_P2;PMS_P1;PMS_P2;Temp;Humidity;BMP_temperature;BMP_pressure;BME280_temperature;BME280_humidity;BME280_pressure;Samples;Min_cycle;Max_cycle;Signal;HPM_P1;HPM_P2
2023/02/17 01:52:24;;;;;;;1.13;1.10;;;0.80;86.60;;;;;;5123235;27;20283;-73
2023/02/17 01:55:07;;;;;;;5.37;1.93;;;0.80;86.80;;;;;;5130644;27;20214;-72
2023/02/17 01:57:35;;;;;;;3.73;3.23;;;0.90;85.80;;;;;;5128649;27;20813;-73
2023/02/17 02:00:03;;;;;;;3.20;3.00;;;1.00;85.40;;;;;;5132332;27;20882;-73
2023/02/17 02:02:29;;;;;;;6.83;3.67;;;1.10;85.70;;;;;;5120671;27;20184;-72
2023/02/17 02:04:55;;;;;;;7.77;3.37;;;1.20;85.60;;;;;;5129663;27;20259;-73
2023/02/17 02:07:34;;;;;;;4.00;2.90;;;1.30;85.00;;;;;;5125535;27;20280;-73
2023/02/17 02:10:00;;;;;;;3.77;3.00;;;1.40;84.40;;;;;;5128420;27;20271;-73
2023/02/17 02:12:32;;;;;;;5.37;3.07;;;1.40;84.90;;;;;;5126524;27;20691;-73
2023/02/17 02:15:02;;;;;;;3.97;3.00;;;1.40;84.40;;;;;;5128711;27;20216;-74
2023/02/17 02:17:45;;;;;;;4.03;2.50;;;1.50;84.20;;;;;;5127209;27;20193;-75
2023/02/17 02:20:45;;;;;;;3.37;2.40;;;1.50;84.10;;;;;;5133454;27;20173;-73
2023/02/17 02:23:32;;;;;;;3.47;3.17;;;1.50;83.90;;;;;;5124416;27;20197;-73
2023/02/17 02:26:36;;;;;;;4.60;3.93;;;1.40;84.40;;;;;;5128484;27;20589;-73
2023/02/17 02:29:23;;;;;;;7.50;3.47;;;1.40;84.70;;;;;;5129719;27;20184;-73
2023/02/17 02:32:22;;;;;;;4.53;3.60;;;1.40;84.20;;;;;;5128927;27;20205;-73
2023/02/17 02:34:55;;;;;;;3.20;2.80;;;1.40;84.10;;;;;;5125334;27;20212;-72
2023/02/17 02:37:32;;;;;;;7.73;3.63;;;1.40;84.30;;;;;;5129127;27;20172;-73
2023/02/17 02:40:01;;;;;;;15.80;4.07;;;1.50;84.50;;;;;;5125644;27;20185;-73
2023/02/17 02:42:27;;;;;;;3.63;2.87;;;1.50;85.30;;;;;;5128034;27;20670;-72
2023/02/17 02:44:53;;;;;;;3.60;3.23;;;1.50;84.90;;;;;;5125625;27;20200;-73
2023/02/17 02:47:37;;;;;;;6.50;3.87;;;1.50;84.10;;;;;;5123310;27;20797;-72
2023/02/17 02:50:03;;;;;;;4.30;2.97;;;1.40;84.80;;;;;;5129223;27;20254;-75
2023/02/17 02:53:07;;;;;;;4.50;3.13;;;1.50;84.50;;;;;;5128090;27;20172;-72
2023/02/17 02:56:16;;;;;;;5.77;4.33;;;1.50;84.40;;;;;;5123434;27;20260;-74
2023/02/17 02:58:59;;;;;;;2.90;2.60;;;1.50;84.70;;;;;;5127553;27;20184;-74
2023/02/17 03:01:42;;;;;;;4.63;2.70;;;1.60;83.80;;;;;;5127747;27;20211;-74
2023/02/17 03:04:12;;;;;;;5.43;3.63;;;1.60;84.40;;;;;;5112388;27;20888;-72
2023/02/17 03:06:48;;;;;;;6.57;3.23;;;1.60;84.40;;;;;;5114408;27;20213;-73
2023/02/17 03:09:20;;;;;;;3.40;3.00;;;1.60;84.50;;;;;;5095010;28;20593;-73
2023/02/17 03:11:47;;;;;;;7.20;2.90;;;1.60;84.10;;;;;;5111655;27;20224;-74
2023/02/17 03:14:17;;;;;;;2.80;2.60;;;1.60;84.10;;;;;;5115525;27;20174;-72
2023/02/17 03:16:43;;;;;;;6.47;2.83;;;1.60;83.90;;;;;;5112790;27;20612;-73
2023/02/17 03:19:09;;;;;;;5.30;3.47;;;1.60;83.90;;;;;;5114530;27;20268;-73
2023/02/17 03:21:42;;;;;;;9.00;3.30;;;1.60;83.80;;;;;;5109537;27;20184;-73
2023/02/17 03:24:09;;;;;;;8.60;3.07;;;1.50;83.80;;;;;;5114700;27;20181;-72
2023/02/17 03:26:35;;;;;;;5.93;3.60;;;1.50;83.80;;;;;;5116259;27;20261;-73
2023/02/17 03:29:00;;;;;;;5.70;4.50;;;1.50;83.70;;;;;;5111081;27;20787;-72
2023/02/17 03:31:26;;;;;;;6.60;4.30;;;1.40;84.00;;;;;;5108773;27;20221;-73
2023/02/17 03:33:52;;;;;;;4.03;3.73;;;1.40;84.10;;;;;;5114967;27;20649;-73
2023/02/17 03:36:18;;;;;;;3.80;2.93;;;1.40;84.30;;;;;;5112886;27;20169;-73
2023/02/17 03:38:43;;;;;;;6.40;5.33;;;1.30;84.40;;;;;;5115657;27;20241;-73
2023/02/17 03:41:09;;;;;;;6.97;4.70;;;1.30;84.10;;;;;;5120582;27;20173;-73
2023/02/17 03:43:35;;;;;;;8.43;4.87;;;1.30;84.50;;;;;;5117614;27;20221;-73
2023/02/17 03:46:00;;;;;;;10.83;4.93;;;1.30;84.80;;;;;;5111496;27;20204;-73
2023/02/17 03:48:26;;;;;;;6.20;4.20;;;1.30;84.80;;;;;;5112685;27;20178;-73
2023/02/17 03:50:53;;;;;;;8.20;4.37;;;1.20;84.90;;;;;;5109305;27;20217;-73
2023/02/17 03:53:18;;;;;;;6.60;4.23;;;1.20;84.90;;;;;;5111223;27;20178;-73
2023/02/17 03:55:44;;;;;;;11.83;5.73;;;1.20;85.20;;;;;;5089263;28;20257;-73
2023/02/17 03:58:10;;;;;;;5.00;3.53;;;1.20;84.90;;;;;;5107198;27;20311;-73
2023/02/17 04:00:36;;;;;;;8.47;3.93;;;1.20;85.00;;;;;;5111918;27;20214;-73
2023/02/17 04:03:02;;;;;;;4.50;3.80;;;1.20;85.20;;;;;;5113863;27;20185;-73
2023/02/17 04:05:28;;;;;;;5.40;3.70;;;1.20;85.40;;;;;;5109039;27;20183;-73
2023/02/17 04:07:53;;;;;;;4.33;3.93;;;1.30;85.50;;;;;;5112427;27;20180;-74
2023/02/17 04:10:19;;;;;;;5.20;3.67;;;1.30;85.50;;;;;;5110663;27;20218;-72
2023/02/17 04:12:45;;;;;;;3.37;3.07;;;1.40;85.70;;;;;;5098139;27;20176;-73
2023/02/17 04:15:10;;;;;;;6.63;3.37;;;1.40;85.10;;;;;;5111610;27;20720;-72
2023/02/17 04:17:37;;;;;;;6.10;4.00;;;1.30;85.80;;;;;;5110792;27;20203;-72
2023/02/17 04:20:05;;;;;;;5.10;2.73;;;1.30;84.70;;;;;;5108952;27;20173;-73
2023/02/17 04:22:31;;;;;;;6.43;2.83;;;1.40;84.30;;;;;;5113441;27;20209;-73
2023/02/17 04:24:56;;;;;;;5.37;3.93;;;1.40;84.50;;;;;;5107169;27;20213;-73
2023/02/17 04:27:22;;;;;;;6.50;3.67;;;1.40;84.20;;;;;;5116573;27;20185;-73
2023/02/17 04:29:48;;;;;;;5.37;2.40;;;1.30;84.60;;;;;;5113011;27;20674;-73
2023/02/17 04:32:13;;;;;;;6.67;3.47;;;1.30;84.70;;;;;;5114876;27;20213;-73
2023/02/17 04:34:39;;;;;;;4.37;3.17;;;1.30;84.90;;;;;;5112729;27;20219;-73
2023/02/17 04:37:05;;;;;;;7.27;3.07;;;1.20;85.40;;;;;;5113801;27;20910;-73
2023/02/17 04:39:31;;;;;;;7.17;4.17;;;1.20;85.40;;;;;;5104401;27;20178;-73
2023/02/17 04:41:56;;;;;;;9.17;3.50;;;1.20;85.70;;;;;;5112769;27;20224;-73
2023/02/17 04:44:22;;;;;;;4.23;2.87;;;1.10;85.70;;;;;;5111628;27;20212;-73
2023/02/17 04:46:48;;;;;;;11.90;4.33;;;1.20;85.60;;;;;;5113789;27;20177;-73
2023/02/17 04:49:13;;;;;;;8.80;4.60;;;1.10;85.70;;;;;;5095221;27;20198;-73
2023/02/17 04:51:39;;;;;;;3.30;2.60;;;1.20;86.00;;;;;;5109840;27;20681;-73
2023/02/17 04:54:05;;;;;;;2.67;2.40;;;1.20;85.80;;;;;;5113519;27;20665;-73
2023/02/17 04:56:30;;;;;;;4.53;2.90;;;1.20;85.50;;;;;;5115821;27;20714;-73
2023/02/17 04:58:56;;;;;;;5.93;3.40;;;1.20;85.80;;;;;;5087616;28;20170;-75
2023/02/17 05:01:21;;;;;;;6.87;3.60;;;1.20;85.70;;;;;;5117937;27;20587;-74
2023/02/17 05:03:47;;;;;;;3.83;3.03;;;1.20;85.50;;;;;;5109219;27;21074;-74
2023/02/17 05:06:13;;;;;;;5.67;3.30;;;1.20;86.10;;;;;;5112487;27;20181;-74
2023/02/17 05:08:38;;;;;;;4.07;2.53;;;1.20;86.00;;;;;;5114251;27;20275;-73
2023/02/17 05:11:05;;;;;;;3.97;3.50;;;1.20;86.10;;;;;;5093490;27;20229;-74
2023/02/17 05:13:32;;;;;;;4.63;3.70;;;1.20;85.80;;;;;;5088107;27;20634;-74
2023/02/17 05:15:57;;;;;;;3.83;3.13;;;1.30;85.90;;;;;;5088973;27;20525;-74
2023/02/17 05:18:23;;;;;;;6.30;3.13;;;1.30;85.50;;;;;;5107870;27;20193;-72
2023/02/17 05:20:49;;;;;;;5.63;3.70;;;1.30;85.50;;;;;;5109359;27;20185;-74
2023/02/17 05:23:14;;;;;;;4.53;3.63;;;1.30;85.80;;;;;;5107950;27;20654;-73
2023/02/17 05:25:40;;;;;;;4.43;3.23;;;1.40;86.00;;;;;;5089368;27;20182;-73
2023/02/17 05:28:06;;;;;;;3.37;2.70;;;1.40;85.60;;;;;;5111107;27;20292;-73
2023/02/17 05:30:31;;;;;;;3.50;3.10;;;1.40;85.70;;;;;;5103938;27;20213;-73
2023/02/17 05:32:57;;;;;;;4.70;2.90;;;1.40;85.90;;;;;;5101086;27;20216;-74
2023/02/17 05:35:23;;;;;;;3.87;3.53;;;1.40;85.30;;;;;;5108331;27;20184;-74
2023/02/17 05:37:48;;;;;;;4.13;3.33;;;1.40;85.40;;;;;;5106491;27;20260;-74
2023/02/17 05:40:14;;;;;;;3.10;2.90;;;1.40;85.20;;;;;;5114933;27;20247;-74
2023/02/17 05:42:40;;;;;;;2.57;2.23;;;1.30;85.80;;;;;;5107828;27;20207;-74
2023/02/17 05:45:06;;;;;;;3.23;2.43;;;1.30;85.90;;;;;;5108038;27;20189;-80
2023/02/17 05:47:34;;;;;;;3.50;2.37;;;1.30;85.90;;;;;;5089971;28;20181;-74
2023/02/17 05:50:00;;;;;;;4.90;3.03;;;1.40;86.10;;;;;;5086650;28;20216;-76
2023/02/17 05:52:26;;;;;;;5.70;4.07;;;1.40;86.00;;;;;;5102576;28;20177;-75
2023/02/17 05:54:51;;;;;;;3.80;3.03;;;1.50;85.00;;;;;;5104612;28;20672;-75
2023/02/17 05:57:17;;;;;;;4.77;3.33;;;1.50;85.40;;;;;;5109944;28;20181;-74
2023/02/17 05:59:43;;;;;;;4.57;3.20;;;1.50;84.90;;;;;;5114770;28;20181;-76
2023/02/17 06:02:08;;;;;;;2.97;2.67;;;1.60;85.10;;;;;;5110000;28;20174;-73
2023/02/17 06:04:34;;;;;;;3.60;3.30;;;1.60;85.30;;;;;;5115195;28;20173;-72
2023/02/17 06:06:59;;;;;;;2.87;2.17;;;1.60;85.10;;;;;;5112127;28;20174;-72
2023/02/17 06:09:25;;;;;;;5.50;3.33;;;1.60;84.50;;;;;;5114126;28;20257;-73
2023/02/17 06:11:51;;;;;;;3.60;3.30;;;1.60;84.60;;;;;;5112184;28;20220;-72
2023/02/17 06:14:16;;;;;;;5.03;3.50;;;1.70;84.00;;;;;;5112885;28;20173;-72
2023/02/17 06:16:42;;;;;;;4.43;3.97;;;1.80;83.90;;;;;;5109703;28;20234;-72
2023/02/17 06:19:08;;;;;;;3.50;2.50;;;1.80;84.00;;;;;;5119895;28;20692;-73
2023/02/17 06:21:33;;;;;;;4.97;3.57;;;2.00;83.50;;;;;;5111597;28;20681;-72
2023/02/17 06:23:59;;;;;;;2.87;2.67;;;2.00;83.20;;;;;;5110862;28;20178;-73
2023/02/17 06:26:25;;;;;;;4.37;3.17;;;2.10;83.40;;;;;;5109615;28;20188;-72
2023/02/17 06:28:50;;;;;;;4.00;2.83;;;2.10;83.70;;;;;;5114851;28;20223;-72
2023/02/17 06:31:16;;;;;;;8.13;4.13;;;2.20;83.50;;;;;;5111926;28;20265;-72
2023/02/17 06:33:41;;;;;;;3.50;3.03;;;2.30;82.80;;;;;;5111922;28;20177;-72
2023/02/17 06:36:07;;;;;;;8.60;3.77;;;2.40;83.10;;;;;;5109154;28;20178;-73
2023/02/17 06:38:33;;;;;;;8.13;3.13;;;2.40;83.60;;;;;;5119083;27;20173;-73
2023/02/17 06:40:59;;;;;;;4.73;3.53;;;2.50;83.70;;;;;;5116490;27;20185;-72
2023/02/17 06:43:24;;;;;;;10.87;3.00;;;2.60;83.70;;;;;;5117383;27;20677;-73
2023/02/17 06:45:50;;;;;;;6.30;4.43;;;2.70;83.80;;;;;;5112970;27;20250;-72
2023/02/17 06:48:16;;;;;;;8.27;4.43;;;2.90;83.70;;;;;;5115292;27;20192;-73
2023/02/17 06:50:41;;;;;;;6.80;4.07;;;3.00;83.40;;;;;;5107422;27;20240;-72
2023/02/17 06:53:07;;;;;;;7.20;4.17;;;3.10;82.80;;;;;;5111142;27;20182;-73
2023/02/17 06:55:34;;;;;;;10.60;5.47;;;3.20;82.10;;;;;;5096144;27;20173;-73
2023/02/17 06:58:00;;;;;;;5.20;3.70;;;3.30;82.10;;;;;;5100891;27;20617;-73
2023/02/17 07:00:26;;;;;;;6.93;4.13;;;3.40;81.60;;;;;;5113806;27;20189;-72
2023/02/17 07:02:52;;;;;;;6.53;4.57;;;3.50;81.80;;;;;;5094466;27;20185;-72
2023/02/17 07:05:18;;;;;;;7.33;4.40;;;3.60;81.60;;;;;;5115328;27;20450;-73
2023/02/17 07:07:43;;;;;;;5.13;4.50;;;3.70;81.80;;;;;;5115722;27;20708;-73
2023/02/17 07:10:09;;;;;;;4.80;3.50;;;3.80;81.00;;;;;;5119969;27;20185;-73
2023/02/17 07:12:35;;;;;;;14.63;4.93;;;3.90;80.80;;;;;;5120516;27;20602;-73
2023/02/17 07:15:01;;;;;;;7.87;4.43;;;4.00;80.80;;;;;;5112623;27;20209;-73
2023/02/17 07:17:27;;;;;;;10.80;5.50;;;4.20;80.90;;;;;;5118609;27;20234;-73
2023/02/17 07:19:52;;;;;;;8.13;4.63;;;4.50;80.10;;;;;;5116933;27;20185;-72
2023/02/17 07:22:18;;;;;;;9.23;4.93;;;4.90;79.40;;;;;;5117364;27;20170;-73
2023/02/17 07:24:44;;;;;;;7.17;4.53;;;5.60;78.80;;;;;;5117718;27;20193;-73
2023/02/17 07:27:09;;;;;;;10.07;5.50;;;6.30;77.30;;;;;;5120582;27;20181;-72
2023/02/17 07:29:35;;;;;;;11.93;4.87;;;7.10;75.40;;;;;;5112919;27;20612;-73
2023/02/17 07:32:01;;;;;;;7.30;5.73;;;8.10;72.80;;;;;;5113645;27;20205;-73
2023/02/17 07:34:26;;;;;;;11.10;5.40;;;8.90;71.40;;;;;;5113087;27;20272;-73
2023/02/17 07:36:52;;;;;;;9.57;5.80;;;9.70;68.70;;;;;;5115964;27;20256;-72
2023/02/17 07:39:18;;;;;;;10.37;6.00;;;10.50;67.20;;;;;;5112248;27;20170;-73
2023/02/17 07:41:43;;;;;;;10.37;6.43;;;11.20;65.80;;;;;;5114268;27;20177;-73
2023/02/17 07:44:09;;;;;;;13.13;7.35;;;11.80;64.30;;;;;;5108616;27;20184;-73
2023/02/17 07:46:35;;;;;;;10.60;6.95;;;12.50;63.60;;;;;;5117163;27;20187;-73
2023/02/17 07:49:01;;;;;;;16.25;8.32;;;13.30;61.70;;;;;;5113094;27;20183;-73
2023/02/17 07:51:26;;;;;;;11.38;6.93;;;13.80;59.80;;;;;;5115299;27;20217;-73
2023/02/17 07:53:52;;;;;;;10.38;7.80;;;14.40;58.70;;;;;;5113322;27;20685;-73
2023/02/17 07:56:20;;;;;;;16.02;8.05;;;15.00;57.30;;;;;;5112744;27;20185;-74
2023/02/17 07:58:46;;;;;;;14.65;7.68;;;15.60;57.80;;;;;;5114727;27;20177;-74
2023/02/17 08:01:19;;;;;;;15.75;7.85;;;16.10;57.20;;;;;;5099157;27;20186;-74
2023/02/17 08:03:46;;;;;;;16.92;8.57;;;16.60;56.20;;;;;;5093323;28;20665;-73
2023/02/17 08:06:14;;;;;;;11.70;8.77;;;17.20;54.50;;;;;;5112705;27;20315;-73
2023/02/17 08:14:10;;;;;;;13.23;8.13;;;18.90;53.10;;;;;;5113779;27;20420;-73
2023/02/17 08:16:36;;;;;;;18.48;9.85;;;19.70;50.20;;;;;;5115417;27;20187;-73
2023/02/17 08:19:01;;;;;;;20.23;9.93;;;20.20;51.10;;;;;;5109304;27;20209;-71
2023/02/17 08:21:27;;;;;;;16.95;10.43;;;20.80;51.60;;;;;;5112104;27;20728;-72
2023/02/17 08:23:53;;;;;;;25.17;11.38;;;21.40;51.30;;;;;;5117785;27;20690;-73
2023/02/17 08:26:20;;;;;;;23.67;11.15;;;22.00;49.80;;;;;;5113422;27;20173;-71
2023/02/17 08:28:48;;;;;;;17.00;10.50;;;22.60;49.70;;;;;;5111290;27;20201;-71
2023/02/17 08:31:19;;;;;;;19.35;10.90;;;23.20;48.90;;;;;;5091555;27;20567;-71
2023/02/17 08:33:45;;;;;;;19.73;10.45;;;23.70;47.80;;;;;;5112865;27;20201;-72
2023/02/17 08:36:11;;;;;;;16.58;10.40;;;24.20;47.70;;;;;;5112907;27;20273;-71
2023/02/17 08:38:38;;;;;;;23.33;11.40;;;24.60;47.40;;;;;;5115692;27;20196;-72
2023/02/17 08:41:12;;;;;;;19.35;11.05;;;25.10;47.70;;;;;;5093377;27;20252;-72
2023/02/17 08:43:37;;;;;;;22.02;11.32;;;25.50;46.80;;;;;;5109189;27;20199;-71
2023/02/17 08:46:07;;;;;;;21.75;11.15;;;25.90;46.20;;;;;;5115685;27;20193;-72
2023/02/17 08:48:33;;;;;;;24.52;11.25;;;26.40;46.30;;;;;;5114570;27;20222;-72
2023/02/17 08:50:59;;;;;;;21.25;11.63;;;26.90;47.10;;;;;;5113612;27;20224;-72
2023/02/17 08:53:24;;;;;;;23.92;11.75;;;27.40;45.50;;;;;;5116720;27;20185;-72
2023/02/17 08:55:50;;;;;;;21.38;11.70;;;27.90;46.40;;;;;;5113807;27;20181;-72
2023/02/17 08:58:16;;;;;;;20.33;12.93;;;28.40;45.70;;;;;;5116888;27;20177;-71
2023/02/17 09:00:42;;;;;;;16.52;11.90;;;28.80;46.20;;;;;;5112232;27;20205;-72
2023/02/17 09:03:07;;;;;;;20.52;11.77;;;29.30;44.40;;;;;;5110242;27;20189;-71
2023/02/17 09:05:35;;;;;;;6.85;4.60;;;29.60;41.60;;;;;;5112953;27;20566;-71
2023/02/17 09:08:00;;;;;;;3.80;3.50;;;28.90;37.60;;;;;;5114284;27;20273;-71
2023/02/17 09:10:26;;;;;;;12.48;3.22;;;28.30;39.80;;;;;;5110652;27;20842;-72
2023/02/17 09:12:52;;;;;;;3.03;2.75;;;27.90;41.50;;;;;;5113102;27;20189;-71
2023/02/17 09:15:18;;;;;;;4.25;2.95;;;27.90;41.30;;;;;;5112421;27;20185;-71
2023/02/17 09:17:44;;;;;;;5.95;3.33;;;27.90;40.60;;;;;;5096861;27;20174;-72
2023/02/17 09:20:10;;;;;;;3.72;3.42;;;28.00;38.90;;;;;;5088153;28;20210;-72
2023/02/17 09:22:36;;;;;;;3.80;3.25;;;27.90;40.50;;;;;;5116078;27;20218;-71
2023/02/17 09:25:03;;;;;;;3.50;3.20;;;27.90;37.90;;;;;;5108564;27;20635;-72
2023/02/17 09:27:29;;;;;;;3.17;2.88;;;27.80;40.50;;;;;;5094800;28;20272;-71
2023/02/17 09:29:54;;;;;;;2.55;2.45;;;27.70;39.40;;;;;;5111005;27;20245;-72
2023/02/17 09:32:20;;;;;;;3.50;3.08;;;27.60;39.90;;;;;;5110012;27;20182;-72
2023/02/17 09:34:52;;;;;;;2.55;2.35;;;27.80;38.20;;;;;;5101794;27;20762;-72
2023/02/17 09:37:18;;;;;;;2.92;2.65;;;27.80;39.60;;;;;;5107353;27;20284;-72
2023/02/17 09:39:45;;;;;;;3.10;2.85;;;28.00;38.30;;;;;;5090564;28;20714;-72
2023/02/17 09:42:26;;;;;;;2.97;2.47;;;28.00;38.40;;;;;;5112845;27;20209;-72
2023/02/17 09:45:02;;;;;;;2.65;2.40;;;27.80;36.90;;;;;;5112562;28;20181;-72
2023/02/17 09:47:58;;;;;;;3.47;3.10;;;27.90;38.60;;;;;;5094976;27;20184;-72
2023/02/17 09:50:38;;;;;;;3.20;3.00;;;27.70;36.30;;;;;;5038301;28;20234;-72
2023/02/17 09:53:20;;;;;;;4.32;3.65;;;27.70;36.20;;;;;;5038695;28;20289;-72
2023/02/17 09:55:53;;;;;;;3.00;2.25;;;27.20;36.10;;;;;;5039252;28;20706;-72
2023/02/17 09:58:58;;;;;;;3.42;3.22;;;26.50;37.30;;;;;;5034542;28;20184;-72
2023/02/17 10:01:31;;;;;;;3.17;2.97;;;26.10;36.70;;;;;;5039879;28;20282;-72
2023/02/17 10:04:06;;;;;;;3.00;2.80;;;25.70;37.50;;;;;;5038443;28;20183;-72
2023/02/17 10:06:37;;;;;;;2.30;2.20;;;25.20;37.20;;;;;;5033870;28;20237;-71
2023/02/17 10:09:25;;;;;;;3.45;2.47;;;25.00;39.90;;;;;;5037639;28;20688;-72
2023/02/17 10:12:03;;;;;;;2.45;2.30;;;24.90;38.10;;;;;;5037657;28;20183;-72
2023/02/17 10:14:44;;;;;;;2.33;2.15;;;25.00;39.60;;;;;;5040786;28;20203;-72
2023/02/17 10:17:16;;;;;;;2.53;2.30;;;24.90;36.80;;;;;;5042601;28;20191;-73
2023/02/17 10:19:54;;;;;;;1.98;1.95;;;24.50;38.30;;;;;;5043764;28;20266;-72
2023/02/17 10:22:22;;;;;;;1.83;1.73;;;24.40;37.60;;;;;;5040478;28;20219;-72
2023/02/17 10:24:48;;;;;;;2.05;1.83;;;24.10;37.20;;;;;;5041124;28;20698;-72
2023/02/17 10:27:46;;;;;;;2.28;2.08;;;23.70;38.00;;;;;;5081114;27;20217;-72
2023/02/17 10:30:23;;;;;;;2.17;2.05;;;23.80;39.30;;;;;;5116778;27;20201;-72
2023/02/17 10:32:57;;;;;;;2.65;1.55;;;24.10;39.50;;;;;;5110571;27;20192;-72
2023/02/17 10:35:32;;;;;;;2.28;2.03;;;24.40;37.60;;;;;;5107792;27;20250;-72
2023/02/17 10:38:11;;;;;;;2.42;1.75;;;24.20;39.80;;;;;;5114424;27;20180;-72
2023/02/17 10:40:37;;;;;;;1.77;1.67;;;24.00;37.80;;;;;;5110867;27;20453;-72
2023/02/17 10:43:07;;;;;;;1.75;1.65;;;23.50;37.90;;;;;;5118354;27;20229;-72
2023/02/17 10:45:35;;;;;;;1.73;1.58;;;23.20;37.90;;;;;;5113045;27;20178;-71
2023/02/17 10:48:15;;;;;;;2.10;2.00;;;23.10;39.20;;;;;;5112018;27;20174;-72
2023/02/17 10:50:43;;;;;;;2.95;2.28;;;23.50;40.70;;;;;;5095066;27;20323;-72
2023/02/17 10:53:24;;;;;;;2.33;2.20;;;24.20;39.20;;;;;;5114354;27;20186;-72
2023/02/17 10:55:56;;;;;;;2.03;1.85;;;25.10;40.00;;;;;;5111546;27;20184;-72
2023/02/17 10:58:32;;;;;;;2.08;1.88;;;25.70;36.70;;;;;;5108491;27;20185;-72
2023/02/17 11:00:58;;;;;;;2.40;2.22;;;25.40;36.70;;;;;;5108026;27;21572;-72
2023/02/17 11:03:30;;;;;;;1.83;1.73;;;24.70;37.90;;;;;;5095698;27;20589;-72
2023/02/17 11:06:05;;;;;;;2.10;2.00;;;24.40;39.20;;;;;;5110272;27;20174;-72
2023/02/17 11:08:37;;;;;;;4.03;2.10;;;24.60;38.50;;;;;;5091554;27;20188;-72
2023/02/17 11:11:13;;;;;;;2.53;2.17;;;24.50;37.80;;;;;;5117691;27;20190;-72
2023/02/17 11:14:02;;;;;;;1.98;1.88;;;24.30;38.20;;;;;;5114422;27;20181;-72
2023/02/17 11:16:37;;;;;;;2.08;1.98;;;24.20;38.10;;;;;;5021138;28;20599;-72
2023/02/17 11:19:05;;;;;;;3.40;2.40;;;23.80;38.60;;;;;;5023340;28;20263;-73
2023/02/17 11:21:32;;;;;;;2.40;2.20;;;23.50;38.70;;;;;;5022963;28;20318;-73
2023/02/17 11:23:59;;;;;;;2.88;2.67;;;23.60;39.30;;;;;;5022540;28;20184;-72
2023/02/17 11:26:27;;;;;;;3.20;2.53;;;23.80;39.30;;;;;;5021769;28;20263;-72
2023/02/17 11:28:53;;;;;;;2.58;2.40;;;23.90;39.60;;;;;;5017696;28;20230;-73
2023/02/17 11:31:26;;;;;;;4.35;2.28;;;23.90;38.90;;;;;;5021681;28;20871;-73
2023/02/17 11:33:52;;;;;;;5.25;2.47;;;24.20;39.40;;;;;;5020832;28;20192;-72
2023/02/17 11:36:31;;;;;;;2.97;2.78;;;24.40;38.50;;;;;;5022255;28;20573;-72
2023/02/17 11:38:59;;;;;;;2.20;2.08;;;24.30;37.40;;;;;;5002188;28;20184;-72
2023/02/17 11:41:25;;;;;;;3.35;2.35;;;24.40;39.30;;;;;;5004125;28;20370;-73
2023/02/17 11:43:57;;;;;;;1.95;1.85;;;24.70;38.40;;;;;;5021185;28;20280;-73
2023/02/17 11:46:42;;;;;;;2.63;2.33;;;24.50;38.20;;;;;;5003787;28;20192;-72
2023/02/17 11:50:01;;;;;;;2.30;2.20;;;23.90;38.90;;;;;;5018158;28;20196;-72
2023/02/17 11:52:55;;;;;;;2.75;2.58;;;23.90;39.20;;;;;;4962700;28;20196;-72
2023/02/17 11:55:48;;;;;;;2.63;2.42;;;24.00;38.90;;;;;;5026758;28;20353;-72
2023/02/17 11:58:36;;;;;;;4.05;2.13;;;24.20;39.30;;;;;;5035708;28;20196;-72
2023/02/17 12:01:04;;;;;;;2.60;2.40;;;24.20;39.00;;;;;;5028775;28;20288;-73
2023/02/17 12:03:55;;;;;;;2.58;2.17;;;24.60;39.90;;;;;;5027034;28;20254;-72
2023/02/17 12:06:39;;;;;;;3.28;2.38;;;24.70;38.10;;;;;;5023710;28;20184;-72
2023/02/17 12:09:06;;;;;;;2.15;2.05;;;24.70;40.70;;;;;;5027261;28;20191;-73
2023/02/17 12:12:04;;;;;;;7.70;2.33;;;25.00;38.80;;;;;;5027561;28;20192;-72
2023/02/17 12:15:11;;;;;;;2.15;2.05;;;24.90;38.80;;;;;;5027025;28;20242;-72
2023/02/17 12:17:48;;;;;;;2.80;2.65;;;25.20;38.50;;;;;;5026985;28;20261;-72
2023/02/17 12:20:39;;;;;;;2.30;2.15;;;25.30;38.20;;;;;;5024541;28;20339;-72
2023/02/17 12:23:40;;;;;;;5.03;2.13;;;25.30;38.50;;;;;;5045112;28;20186;-72
2023/02/17 12:26:32;;;;;;;2.05;1.95;;;25.60;38.10;;;;;;5114617;27;20184;-73
2023/02/17 12:29:06;;;;;;;2.20;2.10;;;25.60;37.10;;;;;;5090586;27;20189;-73
2023/02/17 12:32:11;;;;;;;2.40;2.28;;;25.20;39.40;;;;;;5109511;27;20173;-74
2023/02/17 12:34:47;;;;;;;2.38;1.83;;;25.20;39.10;;;;;;5018684;28;20279;-74
2023/02/17 12:37:20;;;;;;;1.75;1.75;;;25.00;39.30;;;;;;5016662;28;20270;-74
2023/02/17 12:39:56;;;;;;;2.00;1.90;;;24.80;40.50;;;;;;5014463;28;20769;-74
2023/02/17 12:42:49;;;;;;;1.95;1.85;;;25.00;40.40;;;;;;5013833;28;20295;-74
2023/02/17 12:45:21;;;;;;;2.33;2.05;;;25.10;38.80;;;;;;4999313;28;20382;-74
2023/02/17 12:48:09;;;;;;;2.03;1.90;;;25.20;39.70;;;;;;5017148;28;20796;-74
2023/02/17 12:50:38;;;;;;;2.17;2.00;;;25.00;39.50;;;;;;5014067;28;20591;-74
2023/02/17 12:53:27;;;;;;;2.33;2.20;;;25.10;39.20;;;;;;5019792;28;20781;-74
2023/02/17 12:55:59;;;;;;;2.97;2.22;;;25.20;38.70;;;;;;5016519;28;20184;-74
2023/02/17 12:58:27;;;;;;;2.55;2.42;;;25.30;38.50;;;;;;5017854;28;20196;-75
2023/02/17 13:01:07;;;;;;;2.60;2.38;;;25.20;39.40;;;;;;5013820;28;20675;-73
2023/02/17 13:03:34;;;;;;;3.38;2.22;;;25.20;38.80;;;;;;5002056;28;20188;-73
2023/02/17 13:06:36;;;;;;;2.33;2.22;;;25.30;38.70;;;;;;5016647;28;20299;-73
2023/02/17 13:09:44;;;;;;;1.75;1.65;;;25.50;38.70;;;;;;5017143;28;20270;-74
2023/02/17 13:12:34;;;;;;;2.20;2.10;;;25.40;39.30;;;;;;4999356;28;20232;-73
2023/02/17 13:15:04;;;;;;;2.45;2.35;;;25.20;37.90;;;;;;5001075;28;20628;-73
2023/02/17 13:17:37;;;;;;;1.95;1.85;;;24.90;37.90;;;;;;5005667;28;20203;-73
2023/02/17 13:20:08;;;;;;;3.03;2.17;;;24.50;38.70;;;;;;5004852;28;20196;-73
2023/02/17 13:22:34;;;;;;;3.15;2.00;;;24.40;40.40;;;;;;5003024;28;20298;-73
2023/02/17 13:25:00;;;;;;;2.25;2.15;;;24.30;40.10;;;;;;5003878;28;20188;-73
2023/02/17 13:27:29;;;;;;;2.00;1.90;;;24.50;39.20;;;;;;4999298;28;21221;-73
2023/02/17 13:30:01;;;;;;;2.10;1.83;;;24.70;38.40;;;;;;5003038;28;20204;-73
2023/02/17 13:32:37;;;;;;;1.60;1.50;;;24.60;39.40;;;;;;5001778;28;20195;-73
2023/02/17 13:35:16;;;;;;;1.40;1.40;;;24.60;38.50;;;;;;5011239;28;20199;-74
2023/02/17 13:37:45;;;;;;;1.55;1.45;;;24.40;38.10;;;;;;5000292;28;20247;-73
2023/02/17 13:40:22;;;;;;;1.50;1.50;;;24.20;38.30;;;;;;4999095;28;20184;-74
2023/02/17 13:43:14;;;;;;;1.40;1.40;;;23.90;38.30;;;;;;5056516;27;20578;-73
2023/02/17 13:46:02;;;;;;;1.52;1.42;;;23.50;37.50;;;;;;5051278;28;20203;-72
2023/02/17 13:48:31;;;;;;;1.70;1.60;;;23.20;39.00;;;;;;5050092;28;20333;-75
2023/02/17 13:51:01;;;;;;;1.25;1.25;;;22.90;37.90;;;;;;5054279;28;21154;-75
2023/02/17 13:53:32;;;;;;;4.38;1.77;;;22.50;39.40;;;;;;5056517;28;20715;-75
2023/02/17 13:56:07;;;;;;;2.38;1.30;;;22.30;39.80;;;;;;5055285;28;20194;-74
2023/02/17 13:58:35;;;;;;;1.17;1.17;;;22.40;40.30;;;;;;5057962;28;20317;-75
2023/02/17 14:01:03;;;;;;;3.90;1.30;;;22.60;39.40;;;;;;5053623;28;20214;-75
2023/02/17 14:03:50;;;;;;;1.20;1.20;;;22.70;37.60;;;;;;5058511;28;20187;-75
2023/02/17 14:06:32;;;;;;;1.67;1.42;;;22.70;37.90;;;;;;5057338;28;20178;-75
2023/02/17 14:08:58;;;;;;;0.90;0.90;;;22.50;38.70;;;;;;5054682;28;20201;-75
2023/02/17 14:11:27;;;;;;;1.23;1.23;;;22.30;38.40;;;;;;5056752;28;20680;-75
2023/02/17 14:13:55;;;;;;;1.63;1.52;;;22.20;39.50;;;;;;5052650;28;20555;-75
2023/02/17 14:16:32;;;;;;;1.25;1.25;;;22.20;39.40;;;;;;5057984;28;20197;-75
2023/02/17 14:19:05;;;;;;;1.63;1.55;;;22.00;40.00;;;;;;5052779;28;20183;-75
2023/02/17 14:21:31;;;;;;;2.28;2.05;;;22.00;40.00;;;;;;5058251;28;20211;-75
2023/02/17 14:23:58;;;;;;;1.50;1.50;;;22.00;40.30;;;;;;5108927;28;20659;-73
2023/02/17 14:26:38;;;;;;;2.22;2.13;;;22.00;40.70;;;;;;5106834;28;20189;-73
2023/02/17 14:29:07;;;;;;;2.30;2.10;;;21.80;40.40;;;;;;5103928;28;20185;-73
2023/02/17 14:31:42;;;;;;;2.50;2.25;;;21.40;41.10;;;;;;5081073;28;20872;-73
2023/02/17 14:34:23;;;;;;;2.28;2.13;;;21.20;41.10;;;;;;5107082;28;20240;-75
2023/02/17 14:36:48;;;;;;;2.55;2.35;;;20.90;42.60;;;;;;5101781;28;20627;-74
2023/02/17 14:39:14;;;;;;;3.03;2.42;;;20.90;42.90;;;;;;5088914;28;20185;-75
2023/02/17 14:41:41;;;;;;;2.47;2.28;;;20.80;41.90;;;;;;5097570;28;20218;-75
2023/02/17 14:44:07;;;;;;;2.63;2.42;;;20.70;42.80;;;;;;5089069;28;20201;-75
2023/02/17 14:46:34;;;;;;;2.97;2.78;;;20.50;43.20;;;;;;5100921;28;20181;-75
2023/02/17 14:49:00;;;;;;;3.55;2.92;;;20.50;43.10;;;;;;5105779;28;20773;-75
2023/02/17 14:51:33;;;;;;;3.30;3.05;;;20.40;43.10;;;;;;5087761;28;20198;-75
2023/02/17 14:54:01;;;;;;;3.88;3.17;;;20.40;43.90;;;;;;5091986;28;20208;-74
2023/02/17 14:56:32;;;;;;;2.80;2.60;;;20.40;43.60;;;;;;5107543;28;20187;-75
2023/02/17 14:58:58;;;;;;;3.10;2.80;;;20.20;42.90;;;;;;5108449;27;20742;-75
2023/02/17 15:01:24;;;;;;;3.53;3.22;;;20.10;43.80;;;;;;5107319;27;20209;-75
2023/02/17 15:03:50;;;;;;;2.90;2.63;;;20.00;43.90;;;;;;5098619;27;20288;-74
2023/02/17 15:06:32;;;;;;;2.70;2.50;;;19.80;44.00;;;;;;5115626;27;20226;-75
2023/02/17 15:09:00;;;;;;;3.15;2.95;;;19.60;43.80;;;;;;5115207;27;20586;-74